SBCR

Corumbá International Airport

Corumbá, Brazil
TAF SBCR 251530Z 2518/2618 09005KT CAVOK TX34/2518Z TN22/2608Z TEMPO 2518/2524 02005KT 9999 FEW030 RMK PEB
Issued Valid From Valid To
Apr-25 @ 15:30 UTC
(12 hours ago)
Apr-25 @ 18:00 UTC
(10 hours ago)
Apr-26 @ 18:00 UTC
(in 14 hours)
Apr-25 @ 18:00 to Apr-26 @ 18:00
TAF SBCR 251530Z 2518/2618 09005KT CAVOK TX34/2518Z TN22/2608Z
Wind Visibility Clouds
90° at 5 knots 10,000+ meters
  • No significant clouds
Expired Click to View Apr-25 @ 18:00 to Apr-26 @ 00:00
TEMPO 2518/2524 02005KT 9999 FEW030 RMK PEB
Wind Visibility Clouds
20° at 5 knots 10,000+ meters
  • Few at 3,000' AGL
TAF SBCR 251530Z 2518/2618 09005KT CAVOK TX34/2518Z TN22/2608Z TEMPO 2518/2524 02005KT 9999 FEW030 RMK PEB
Issued Apr-25 @ 15:30 UTC
(12 hours ago)
Valid From Apr-25 @ 18:00 UTC
(10 hours ago)
Valid To Apr-26 @ 18:00 UTC
(in 14 hours)
Apr-25 @ 18:00 - Apr-26 @ 18:00
Wind Visibility
90° at 5 knots 10,000+ meters
Clouds
  • No significant clouds
Apr-25 @ 18:00 - Apr-26 @ 00:00
Wind Visibility
20° at 5 knots 10,000+ meters
Clouds
  • Few at 3,000' AGL